sensor_id;sensor_type;location;lat;lon;timestamp;temperature;humidity
7331;DHT22;3706;49.198;7.064;2022-09-27T00:01:13;9.50;99.90
7331;DHT22;3706;49.198;7.064;2022-09-27T00:03:40;9.60;99.90
7331;DHT22;3706;49.198;7.064;2022-09-27T00:06:11;9.70;99.90
7331;DHT22;3706;49.198;7.064;2022-09-27T00:08:39;9.70;99.90
7331;DHT22;3706;49.198;7.064;2022-09-27T00:11:11;9.60;99.90
7331;DHT22;3706;49.198;7.064;2022-09-27T00:13:41;9.60;99.90
7331;DHT22;3706;49.198;7.064;2022-09-27T00:16:08;9.60;99.90
7331;DHT22;3706;49.198;7.064;2022-09-27T00:18:35;9.50;99.90
7331;DHT22;3706;49.198;7.064;2022-09-27T00:21:07;9.60;99.90
7331;DHT22;3706;49.198;7.064;2022-09-27T00:23:35;9.60;99.90
7331;DHT22;3706;49.198;7.064;2022-09-27T00:26:03;9.60;99.90
7331;DHT22;3706;49.198;7.064;2022-09-27T00:28:32;9.70;99.90
7331;DHT22;3706;49.198;7.064;2022-09-27T00:30:59;9.70;99.90
7331;DHT22;3706;49.198;7.064;2022-09-27T00:33:26;9.70;99.90
7331;DHT22;3706;49.198;7.064;2022-09-27T00:35:53;9.70;99.90
7331;DHT22;3706;49.198;7.064;2022-09-27T00:38:21;9.70;99.90
7331;DHT22;3706;49.198;7.064;2022-09-27T00:40:48;9.70;99.90
7331;DHT22;3706;49.198;7.064;2022-09-27T00:43:17;9.60;99.90
7331;DHT22;3706;49.198;7.064;2022-09-27T00:45:48;9.60;99.90
7331;DHT22;3706;49.198;7.064;2022-09-27T00:48:21;9.60;99.90
7331;DHT22;3706;49.198;7.064;2022-09-27T00:50:54;9.60;99.90
7331;DHT22;3706;49.198;7.064;2022-09-27T00:53:26;9.50;99.90
7331;DHT22;3706;49.198;7.064;2022-09-27T00:55:59;9.50;99.90
7331;DHT22;3706;49.198;7.064;2022-09-27T00:58:29;9.50;99.90
7331;DHT22;3706;49.198;7.064;2022-09-27T01:01:00;9.50;99.90
7331;DHT22;3706;49.198;7.064;2022-09-27T01:03:33;9.50;99.90
7331;DHT22;3706;49.198;7.064;2022-09-27T01:06:05;9.50;99.90
7331;DHT22;3706;49.198;7.064;2022-09-27T01:08:32;9.50;99.90
7331;DHT22;3706;49.198;7.064;2022-09-27T01:11:09;9.50;99.90
7331;DHT22;3706;49.198;7.064;2022-09-27T01:13:44;9.50;99.90
7331;DHT22;3706;49.198;7.064;2022-09-27T01:16:22;9.50;99.90
7331;DHT22;3706;49.198;7.064;2022-09-27T01:19:00;9.50;99.90
7331;DHT22;3706;49.198;7.064;2022-09-27T01:21:47;9.50;99.90
7331;DHT22;3706;49.198;7.064;2022-09-27T01:24:41;9.50;99.90
7331;DHT22;3706;49.198;7.064;2022-09-27T01:30:21;9.60;99.90
7331;DHT22;3706;49.198;7.064;2022-09-27T01:35:45;9.60;99.90
7331;DHT22;3706;49.198;7.064;2022-09-27T01:38:22;9.50;99.90
7331;DHT22;3706;49.198;7.064;2022-09-27T01:40:56;9.50;99.90
7331;DHT22;3706;49.198;7.064;2022-09-27T01:43:29;9.50;99.90
7331;DHT22;3706;49.198;7.064;2022-09-27T01:46:03;9.50;99.90
7331;DHT22;3706;49.198;7.064;2022-09-27T01:48:35;9.50;99.90
7331;DHT22;3706;49.198;7.064;2022-09-27T01:51:05;9.40;99.90
7331;DHT22;3706;49.198;7.064;2022-09-27T01:53:35;9.40;99.90
7331;DHT22;3706;49.198;7.064;2022-09-27T01:56:07;9.40;99.90
7331;DHT22;3706;49.198;7.064;2022-09-27T01:58:40;9.40;99.90
7331;DHT22;3706;49.198;7.064;2022-09-27T02:01:12;9.40;99.90
7331;DHT22;3706;49.198;7.064;2022-09-27T02:03:42;9.40;99.90
7331;DHT22;3706;49.198;7.064;2022-09-27T02:06:12;9.40;99.90
7331;DHT22;3706;49.198;7.064;2022-09-27T02:08:43;9.40;99.90
7331;DHT22;3706;49.198;7.064;2022-09-27T02:11:12;9.40;99.90
7331;DHT22;3706;49.198;7.064;2022-09-27T02:13:45;9.40;99.90
7331;DHT22;3706;49.198;7.064;2022-09-27T02:16:21;9.40;99.90
7331;DHT22;3706;49.198;7.064;2022-09-27T02:18:56;9.40;99.90
7331;DHT22;3706;49.198;7.064;2022-09-27T02:21:35;9.30;99.90
7331;DHT22;3706;49.198;7.064;2022-09-27T02:24:06;9.30;99.90
7331;DHT22;3706;49.198;7.064;2022-09-27T02:26:38;9.30;99.90
7331;DHT22;3706;49.198;7.064;2022-09-27T02:29:09;9.30;99.90
7331;DHT22;3706;49.198;7.064;2022-09-27T02:31:38;9.30;99.90
7331;DHT22;3706;49.198;7.064;2022-09-27T02:34:09;9.30;99.90
7331;DHT22;3706;49.198;7.064;2022-09-27T02:36:37;9.30;99.90
7331;DHT22;3706;49.198;7.064;2022-09-27T02:39:05;9.30;99.90
7331;DHT22;3706;49.198;7.064;2022-09-27T02:41:32;9.30;99.90
7331;DHT22;3706;49.198;7.064;2022-09-27T02:44:02;9.30;99.90
7331;DHT22;3706;49.198;7.064;2022-09-27T02:46:59;9.30;99.90
7331;DHT22;3706;49.198;7.064;2022-09-27T02:49:45;9.40;99.90
7331;DHT22;3706;49.198;7.064;2022-09-27T02:52:21;9.40;99.90
7331;DHT22;3706;49.198;7.064;2022-09-27T02:55:02;9.40;99.90
7331;DHT22;3706;49.198;7.064;2022-09-27T02:57:44;9.30;99.90
7331;DHT22;3706;49.198;7.064;2022-09-27T03:00:15;9.30;99.90
7331;DHT22;3706;49.198;7.064;2022-09-27T03:02:50;9.20;99.90
7331;DHT22;3706;49.198;7.064;2022-09-27T03:05:21;9.20;99.90
7331;DHT22;3706;49.198;7.064;2022-09-27T03:07:48;9.20;99.90
7331;DHT22;3706;49.198;7.064;2022-09-27T03:10:16;9.10;99.90
7331;DHT22;3706;49.198;7.064;2022-09-27T03:12:44;9.10;99.90
7331;DHT22;3706;49.198;7.064;2022-09-27T03:15:11;9.10;99.90
7331;DHT22;3706;49.198;7.064;2022-09-27T03:17:39;9.10;99.90
7331;DHT22;3706;49.198;7.064;2022-09-27T03:20:07;9.10;99.90
7331;DHT22;3706;49.198;7.064;2022-09-27T03:22:35;9.10;99.90
7331;DHT22;3706;49.198;7.064;2022-09-27T03:25:03;9.10;99.90
7331;DHT22;3706;49.198;7.064;2022-09-27T03:27:30;9.10;99.90
7331;DHT22;3706;49.198;7.064;2022-09-27T03:29:57;9.10;99.90
7331;DHT22;3706;49.198;7.064;2022-09-27T03:32:25;9.10;99.90
7331;DHT22;3706;49.198;7.064;2022-09-27T03:34:52;9.10;99.90
7331;DHT22;3706;49.198;7.064;2022-09-27T03:37:21;9.10;99.90
7331;DHT22;3706;49.198;7.064;2022-09-27T03:39:49;9.10;99.90
7331;DHT22;3706;49.198;7.064;2022-09-27T03:42:15;9.10;99.90
7331;DHT22;3706;49.198;7.064;2022-09-27T03:44:42;9.10;99.90
7331;DHT22;3706;49.198;7.064;2022-09-27T03:47:09;9.10;99.90
7331;DHT22;3706;49.198;7.064;2022-09-27T03:49:37;9.10;99.90
7331;DHT22;3706;49.198;7.064;2022-09-27T03:52:03;9.10;99.90
7331;DHT22;3706;49.198;7.064;2022-09-27T03:54:32;9.10;99.90
7331;DHT22;3706;49.198;7.064;2022-09-27T03:56:59;9.10;99.90
7331;DHT22;3706;49.198;7.064;2022-09-27T03:59:26;9.10;99.90
7331;DHT22;3706;49.198;7.064;2022-09-27T04:01:53;9.10;99.90
7331;DHT22;3706;49.198;7.064;2022-09-27T04:04:20;9.00;99.90
7331;DHT22;3706;49.198;7.064;2022-09-27T04:06:48;9.00;99.90
7331;DHT22;3706;49.198;7.064;2022-09-27T04:09:16;8.90;99.90
7331;DHT22;3706;49.198;7.064;2022-09-27T04:11:44;9.00;99.90
7331;DHT22;3706;49.198;7.064;2022-09-27T04:14:11;9.00;99.90
7331;DHT22;3706;49.198;7.064;2022-09-27T04:16:38;9.00;99.90
7331;DHT22;3706;49.198;7.064;2022-09-27T04:19:06;8.90;99.90
7331;DHT22;3706;49.198;7.064;2022-09-27T04:21:34;8.80;99.90
7331;DHT22;3706;49.198;7.064;2022-09-27T04:24:01;8.80;99.90
7331;DHT22;3706;49.198;7.064;2022-09-27T04:26:29;8.70;99.90
7331;DHT22;3706;49.198;7.064;2022-09-27T04:28:58;8.70;99.90
7331;DHT22;3706;49.198;7.064;2022-09-27T04:31:25;8.70;99.90
7331;DHT22;3706;49.198;7.064;2022-09-27T04:33:52;8.60;99.90
7331;DHT22;3706;49.198;7.064;2022-09-27T04:36:21;8.50;99.90
7331;DHT22;3706;49.198;7.064;2022-09-27T04:38:53;8.60;99.90
7331;DHT22;3706;49.198;7.064;2022-09-27T04:41:21;8.60;99.90
7331;DHT22;3706;49.198;7.064;2022-09-27T04:43:49;8.60;99.90
7331;DHT22;3706;49.198;7.064;2022-09-27T04:46:17;8.50;99.90
7331;DHT22;3706;49.198;7.064;2022-09-27T04:48:45;8.50;99.90
7331;DHT22;3706;49.198;7.064;2022-09-27T04:51:12;8.50;99.90
7331;DHT22;3706;49.198;7.064;2022-09-27T04:53:41;8.50;99.90
7331;DHT22;3706;49.198;7.064;2022-09-27T04:56:08;8.50;99.90
7331;DHT22;3706;49.198;7.064;2022-09-27T04:58:35;8.50;99.90
7331;DHT22;3706;49.198;7.064;2022-09-27T05:01:02;8.50;99.90
7331;DHT22;3706;49.198;7.064;2022-09-27T05:03:31;8.50;99.90
7331;DHT22;3706;49.198;7.064;2022-09-27T05:05:58;8.60;99.90
7331;DHT22;3706;49.198;7.064;2022-09-27T05:08:26;8.60;99.90
7331;DHT22;3706;49.198;7.064;2022-09-27T05:10:53;8.60;99.90
7331;DHT22;3706;49.198;7.064;2022-09-27T05:13:20;8.60;99.90
7331;DHT22;3706;49.198;7.064;2022-09-27T05:15:48;8.60;99.90
7331;DHT22;3706;49.198;7.064;2022-09-27T05:18:15;8.70;99.90
7331;DHT22;3706;49.198;7.064;2022-09-27T05:20:44;8.70;99.90
7331;DHT22;3706;49.198;7.064;2022-09-27T05:23:11;8.60;99.90
7331;DHT22;3706;49.198;7.064;2022-09-27T05:25:38;8.60;99.90
7331;DHT22;3706;49.198;7.064;2022-09-27T05:28:05;8.60;99.90
7331;DHT22;3706;49.198;7.064;2022-09-27T05:30:33;8.50;99.90
7331;DHT22;3706;49.198;7.064;2022-09-27T05:33:00;8.60;99.90
7331;DHT22;3706;49.198;7.064;2022-09-27T05:35:27;8.60;99.90
7331;DHT22;3706;49.198;7.064;2022-09-27T05:37:57;8.60;99.90
7331;DHT22;3706;49.198;7.064;2022-09-27T05:40:25;8.60;99.90
7331;DHT22;3706;49.198;7.064;2022-09-27T05:42:54;8.60;99.90
7331;DHT22;3706;49.198;7.064;2022-09-27T05:45:22;8.70;99.90
7331;DHT22;3706;49.198;7.064;2022-09-27T05:47:53;8.70;99.90
7331;DHT22;3706;49.198;7.064;2022-09-27T05:50:21;8.70;99.90
7331;DHT22;3706;49.198;7.064;2022-09-27T05:52:48;8.60;99.90
7331;DHT22;3706;49.198;7.064;2022-09-27T05:55:17;8.60;99.90
7331;DHT22;3706;49.198;7.064;2022-09-27T05:57:53;8.60;99.90
7331;DHT22;3706;49.198;7.064;2022-09-27T06:00:21;8.60;99.90
7331;DHT22;3706;49.198;7.064;2022-09-27T06:02:52;8.60;99.90
7331;DHT22;3706;49.198;7.064;2022-09-27T06:05:21;8.70;99.90
7331;DHT22;3706;49.198;7.064;2022-09-27T06:07:48;8.70;99.90
7331;DHT22;3706;49.198;7.064;2022-09-27T06:10:17;8.70;99.90
7331;DHT22;3706;49.198;7.064;2022-09-27T06:12:44;8.70;99.90
7331;DHT22;3706;49.198;7.064;2022-09-27T06:15:11;8.80;99.90
7331;DHT22;3706;49.198;7.064;2022-09-27T06:17:39;8.80;99.90
7331;DHT22;3706;49.198;7.064;2022-09-27T06:20:07;8.90;99.90
7331;DHT22;3706;49.198;7.064;2022-09-27T06:22:35;8.90;99.90
7331;DHT22;3706;49.198;7.064;2022-09-27T06:25:02;8.90;99.90
7331;DHT22;3706;49.198;7.064;2022-09-27T06:27:31;9.00;99.90
7331;DHT22;3706;49.198;7.064;2022-09-27T06:29:59;9.00;99.90
7331;DHT22;3706;49.198;7.064;2022-09-27T06:32:25;9.10;99.90
7331;DHT22;3706;49.198;7.064;2022-09-27T06:34:53;9.20;99.90
7331;DHT22;3706;49.198;7.064;2022-09-27T06:37:24;9.30;99.90
7331;DHT22;3706;49.198;7.064;2022-09-27T06:39:51;9.40;99.90
7331;DHT22;3706;49.198;7.064;2022-09-27T06:42:18;9.50;99.90
7331;DHT22;3706;49.198;7.064;2022-09-27T06:44:46;9.50;99.90
7331;DHT22;3706;49.198;7.064;2022-09-27T06:47:14;9.60;99.90
7331;DHT22;3706;49.198;7.064;2022-09-27T06:49:41;9.70;99.90
7331;DHT22;3706;49.198;7.064;2022-09-27T06:52:08;9.80;99.90
7331;DHT22;3706;49.198;7.064;2022-09-27T06:54:36;9.90;99.90
7331;DHT22;3706;49.198;7.064;2022-09-27T06:57:03;10.10;99.90
7331;DHT22;3706;49.198;7.064;2022-09-27T06:59:30;10.10;99.90
7331;DHT22;3706;49.198;7.064;2022-09-27T07:02:16;10.20;99.90
7331;DHT22;3706;49.198;7.064;2022-09-27T07:04:43;10.30;99.90
7331;DHT22;3706;49.198;7.064;2022-09-27T07:07:10;10.30;99.90
7331;DHT22;3706;49.198;7.064;2022-09-27T07:09:37;10.30;99.90
7331;DHT22;3706;49.198;7.064;2022-09-27T07:12:05;10.20;99.90
7331;DHT22;3706;49.198;7.064;2022-09-27T07:14:32;10.10;99.90
7331;DHT22;3706;49.198;7.064;2022-09-27T07:16:59;10.00;99.90
7331;DHT22;3706;49.198;7.064;2022-09-27T07:19:28;10.00;99.90
7331;DHT22;3706;49.198;7.064;2022-09-27T07:21:55;10.00;99.90
7331;DHT22;3706;49.198;7.064;2022-09-27T07:24:22;9.90;99.90
7331;DHT22;3706;49.198;7.064;2022-09-27T07:26:49;9.90;99.90
7331;DHT22;3706;49.198;7.064;2022-09-27T07:29:16;10.00;99.90
7331;DHT22;3706;49.198;7.064;2022-09-27T07:31:43;10.10;99.90
7331;DHT22;3706;49.198;7.064;2022-09-27T07:34:10;10.30;99.90
7331;DHT22;3706;49.198;7.064;2022-09-27T07:36:38;10.50;99.90
7331;DHT22;3706;49.198;7.064;2022-09-27T07:39:06;10.60;99.90
7331;DHT22;3706;49.198;7.064;2022-09-27T07:41:33;10.70;99.90
7331;DHT22;3706;49.198;7.064;2022-09-27T07:44:00;10.90;99.90
7331;DHT22;3706;49.198;7.064;2022-09-27T07:46:29;11.70;99.90
7331;DHT22;3706;49.198;7.064;2022-09-27T07:48:56;13.30;99.90
7331;DHT22;3706;49.198;7.064;2022-09-27T07:51:23;14.30;99.90
7331;DHT22;3706;49.198;7.064;2022-09-27T07:53:51;14.50;99.90
7331;DHT22;3706;49.198;7.064;2022-09-27T07:56:18;14.30;99.90
7331;DHT22;3706;49.198;7.064;2022-09-27T07:58:46;13.90;99.90
7331;DHT22;3706;49.198;7.064;2022-09-27T08:01:13;13.50;99.90
7331;DHT22;3706;49.198;7.064;2022-09-27T08:03:40;13.10;99.90
7331;DHT22;3706;49.198;7.064;2022-09-27T08:06:07;12.60;99.90
7331;DHT22;3706;49.198;7.064;2022-09-27T08:08:34;12.30;99.90
7331;DHT22;3706;49.198;7.064;2022-09-27T08:11:11;12.10;99.90
7331;DHT22;3706;49.198;7.064;2022-09-27T08:13:40;11.80;99.90
7331;DHT22;3706;49.198;7.064;2022-09-27T08:16:07;11.60;99.90
7331;DHT22;3706;49.198;7.064;2022-09-27T08:18:34;11.40;99.90
7331;DHT22;3706;49.198;7.064;2022-09-27T08:21:01;11.30;99.90
7331;DHT22;3706;49.198;7.064;2022-09-27T08:23:28;11.20;99.90
7331;DHT22;3706;49.198;7.064;2022-09-27T08:25:55;11.00;99.90
7331;DHT22;3706;49.198;7.064;2022-09-27T08:28:25;11.00;99.90
7331;DHT22;3706;49.198;7.064;2022-09-27T08:30:53;11.10;99.90
7331;DHT22;3706;49.198;7.064;2022-09-27T08:33:20;11.20;99.90
7331;DHT22;3706;49.198;7.064;2022-09-27T08:35:47;11.40;99.90
7331;DHT22;3706;49.198;7.064;2022-09-27T08:38:14;12.20;99.90
7331;DHT22;3706;49.198;7.064;2022-09-27T08:40:50;13.20;99.90
7331;DHT22;3706;49.198;7.064;2022-09-27T08:43:26;14.40;99.90
7331;DHT22;3706;49.198;7.064;2022-09-27T08:46:03;15.20;99.90
7331;DHT22;3706;49.198;7.064;2022-09-27T08:48:35;15.40;99.90
7331;DHT22;3706;49.198;7.064;2022-09-27T08:51:04;15.40;99.90
7331;DHT22;3706;49.198;7.064;2022-09-27T08:53:35;15.20;99.90
7331;DHT22;3706;49.198;7.064;2022-09-27T08:56:07;14.90;99.90
7331;DHT22;3706;49.198;7.064;2022-09-27T08:58:40;14.60;99.90
7331;DHT22;3706;49.198;7.064;2022-09-27T09:01:11;14.20;99.90
7331;DHT22;3706;49.198;7.064;2022-09-27T09:03:44;13.80;99.90
7331;DHT22;3706;49.198;7.064;2022-09-27T09:06:18;13.50;99.90
7331;DHT22;3706;49.198;7.064;2022-09-27T09:08:58;13.20;99.90
7331;DHT22;3706;49.198;7.064;2022-09-27T09:11:33;12.80;99.90
7331;DHT22;3706;49.198;7.064;2022-09-27T09:14:43;12.50;99.90
7331;DHT22;3706;49.198;7.064;2022-09-27T09:17:21;12.50;99.90
7331;DHT22;3706;49.198;7.064;2022-09-27T09:20:00;12.60;99.90
7331;DHT22;3706;49.198;7.064;2022-09-27T09:22:39;12.70;99.90
7331;DHT22;3706;49.198;7.064;2022-09-27T09:25:20;12.80;99.90
7331;DHT22;3706;49.198;7.064;2022-09-27T09:27:57;12.80;99.90
7331;DHT22;3706;49.198;7.064;2022-09-27T09:30:38;12.70;99.90
7331;DHT22;3706;49.198;7.064;2022-09-27T09:33:20;12.70;99.90
7331;DHT22;3706;49.198;7.064;2022-09-27T09:35:53;12.60;99.90
7331;DHT22;3706;49.198;7.064;2022-09-27T09:38:28;12.60;99.90
7331;DHT22;3706;49.198;7.064;2022-09-27T09:41:03;12.50;99.90
7331;DHT22;3706;49.198;7.064;2022-09-27T09:43:34;12.60;99.90
7331;DHT22;3706;49.198;7.064;2022-09-27T09:46:07;12.90;99.90
7331;DHT22;3706;49.198;7.064;2022-09-27T09:48:41;13.60;99.90
7331;DHT22;3706;49.198;7.064;2022-09-27T09:51:14;14.60;99.90
7331;DHT22;3706;49.198;7.064;2022-09-27T09:53:46;15.20;99.90
7331;DHT22;3706;49.198;7.064;2022-09-27T09:56:20;15.70;99.90
7331;DHT22;3706;49.198;7.064;2022-09-27T09:58:53;15.90;99.90
7331;DHT22;3706;49.198;7.064;2022-09-27T10:01:25;16.00;99.90
7331;DHT22;3706;49.198;7.064;2022-09-27T10:03:53;16.10;99.90
7331;DHT22;3706;49.198;7.064;2022-09-27T10:06:21;16.60;99.90
7331;DHT22;3706;49.198;7.064;2022-09-27T10:08:49;16.80;99.90
7331;DHT22;3706;49.198;7.064;2022-09-27T10:11:24;16.60;99.90
7331;DHT22;3706;49.198;7.064;2022-09-27T10:13:52;16.40;99.90
7331;DHT22;3706;49.198;7.064;2022-09-27T10:16:22;16.30;99.90
7331;DHT22;3706;49.198;7.064;2022-09-27T10:18:51;16.20;99.90
7331;DHT22;3706;49.198;7.064;2022-09-27T10:21:23;16.00;99.90
7331;DHT22;3706;49.198;7.064;2022-09-27T10:24:06;15.90;99.90
7331;DHT22;3706;49.198;7.064;2022-09-27T10:26:35;15.80;99.90
7331;DHT22;3706;49.198;7.064;2022-09-27T10:29:22;15.60;99.90
7331;DHT22;3706;49.198;7.064;2022-09-27T10:31:51;15.20;99.90
7331;DHT22;3706;49.198;7.064;2022-09-27T10:34:30;14.90;99.90
7331;DHT22;3706;49.198;7.064;2022-09-27T10:37:04;14.60;99.90
7331;DHT22;3706;49.198;7.064;2022-09-27T10:39:32;14.50;99.90
7331;DHT22;3706;49.198;7.064;2022-09-27T10:42:00;14.60;99.90
7331;DHT22;3706;49.198;7.064;2022-09-27T10:44:28;14.50;99.90
7331;DHT22;3706;49.198;7.064;2022-09-27T10:47:00;14.10;99.90
7331;DHT22;3706;49.198;7.064;2022-09-27T10:49:33;13.80;99.90
7331;DHT22;3706;49.198;7.064;2022-09-27T10:52:02;13.30;99.90
7331;DHT22;3706;49.198;7.064;2022-09-27T10:54:33;13.00;99.90
7331;DHT22;3706;49.198;7.064;2022-09-27T10:57:02;12.70;99.90
7331;DHT22;3706;49.198;7.064;2022-09-27T10:59:33;12.40;99.90
7331;DHT22;3706;49.198;7.064;2022-09-27T11:02:03;12.20;99.90
7331;DHT22;3706;49.198;7.064;2022-09-27T11:04:33;12.30;99.90
7331;DHT22;3706;49.198;7.064;2022-09-27T11:07:12;12.50;99.90
7331;DHT22;3706;49.198;7.064;2022-09-27T11:09:48;12.70;99.90
7331;DHT22;3706;49.198;7.064;2022-09-27T11:12:16;13.00;99.90
7331;DHT22;3706;49.198;7.064;2022-09-27T11:14:55;13.10;99.90
7331;DHT22;3706;49.198;7.064;2022-09-27T11:17:32;13.20;99.90
7331;DHT22;3706;49.198;7.064;2022-09-27T11:20:16;13.30;99.90
7331;DHT22;3706;49.198;7.064;2022-09-27T11:23:10;13.30;99.90
7331;DHT22;3706;49.198;7.064;2022-09-27T11:25:49;13.30;99.90
7331;DHT22;3706;49.198;7.064;2022-09-27T11:28:29;13.40;99.90
7331;DHT22;3706;49.198;7.064;2022-09-27T11:31:04;13.40;99.90
7331;DHT22;3706;49.198;7.064;2022-09-27T11:33:53;13.50;99.90
7331;DHT22;3706;49.198;7.064;2022-09-27T11:36:33;13.40;99.90
7331;DHT22;3706;49.198;7.064;2022-09-27T11:39:09;13.10;99.90
7331;DHT22;3706;49.198;7.064;2022-09-27T11:41:47;12.80;99.90
7331;DHT22;3706;49.198;7.064;2022-09-27T11:44:40;12.50;99.90
7331;DHT22;3706;49.198;7.064;2022-09-27T11:47:16;12.10;99.90
7331;DHT22;3706;49.198;7.064;2022-09-27T11:50:14;11.90;99.90
7331;DHT22;3706;49.198;7.064;2022-09-27T11:52:54;11.60;99.90
7331;DHT22;3706;49.198;7.064;2022-09-27T11:55:33;11.40;99.90
7331;DHT22;3706;49.198;7.064;2022-09-27T11:58:08;11.30;99.90
7331;DHT22;3706;49.198;7.064;2022-09-27T12:00:45;11.30;99.90
7331;DHT22;3706;49.198;7.064;2022-09-27T12:03:37;11.40;99.90
7331;DHT22;3706;49.198;7.064;2022-09-27T12:06:11;11.60;99.90
7331;DHT22;3706;49.198;7.064;2022-09-27T12:08:51;11.70;99.90
7331;DHT22;3706;49.198;7.064;2022-09-27T12:11:26;11.60;99.90
7331;DHT22;3706;49.198;7.064;2022-09-27T12:13:58;11.40;99.90
7331;DHT22;3706;49.198;7.064;2022-09-27T12:16:29;11.40;99.90
7331;DHT22;3706;49.198;7.064;2022-09-27T12:18:58;11.40;99.90
7331;DHT22;3706;49.198;7.064;2022-09-27T12:21:29;11.50;99.90
7331;DHT22;3706;49.198;7.064;2022-09-27T12:23:57;11.50;99.90
7331;DHT22;3706;49.198;7.064;2022-09-27T12:26:28;11.70;99.90
7331;DHT22;3706;49.198;7.064;2022-09-27T12:28:59;12.00;99.90
7331;DHT22;3706;49.198;7.064;2022-09-27T12:31:30;12.60;99.90
7331;DHT22;3706;49.198;7.064;2022-09-27T12:34:08;13.20;99.90
7331;DHT22;3706;49.198;7.064;2022-09-27T12:36:42;13.70;99.90
7331;DHT22;3706;49.198;7.064;2022-09-27T12:39:14;13.80;99.90
7331;DHT22;3706;49.198;7.064;2022-09-27T12:41:46;13.60;99.90
7331;DHT22;3706;49.198;7.064;2022-09-27T12:44:14;13.60;99.90
7331;DHT22;3706;49.198;7.064;2022-09-27T12:46:50;13.60;99.90
7331;DHT22;3706;49.198;7.064;2022-09-27T12:49:27;13.70;99.90
7331;DHT22;3706;49.198;7.064;2022-09-27T12:51:58;13.60;99.90
7331;DHT22;3706;49.198;7.064;2022-09-27T12:54:49;13.60;99.90
7331;DHT22;3706;49.198;7.064;2022-09-27T12:57:27;13.50;99.90
7331;DHT22;3706;49.198;7.064;2022-09-27T13:00:04;13.50;99.90
7331;DHT22;3706;49.198;7.064;2022-09-27T13:05:50;13.30;99.90
7331;DHT22;3706;49.198;7.064;2022-09-27T13:08:35;13.30;99.90
7331;DHT22;3706;49.198;7.064;2022-09-27T13:11:12;13.40;99.90
7331;DHT22;3706;49.198;7.064;2022-09-27T13:13:40;13.50;99.90
7331;DHT22;3706;49.198;7.064;2022-09-27T13:16:08;13.80;99.90
7331;DHT22;3706;49.198;7.064;2022-09-27T13:18:55;14.00;99.90
7331;DHT22;3706;49.198;7.064;2022-09-27T13:21:53;14.50;99.90
7331;DHT22;3706;49.198;7.064;2022-09-27T13:24:39;15.10;99.90
7331;DHT22;3706;49.198;7.064;2022-09-27T13:27:37;15.60;99.90
7331;DHT22;3706;49.198;7.064;2022-09-27T13:33:38;16.40;99.90
7331;DHT22;3706;49.198;7.064;2022-09-27T13:36:29;16.10;99.90
7331;DHT22;3706;49.198;7.064;2022-09-27T13:39:17;15.60;99.90
7331;DHT22;3706;49.198;7.064;2022-09-27T13:42:03;15.20;99.90
7331;DHT22;3706;49.198;7.064;2022-09-27T13:44:40;14.80;99.90
7331;DHT22;3706;49.198;7.064;2022-09-27T13:47:20;14.40;99.90
7331;DHT22;3706;49.198;7.064;2022-09-27T13:49:53;13.50;99.90
7331;DHT22;3706;49.198;7.064;2022-09-27T13:52:25;12.30;99.90
7331;DHT22;3706;49.198;7.064;2022-09-27T13:54:56;11.50;99.90
7331;DHT22;3706;49.198;7.064;2022-09-27T13:57:42;10.70;99.90
7331;DHT22;3706;49.198;7.064;2022-09-27T14:00:13;10.20;99.90
7331;DHT22;3706;49.198;7.064;2022-09-27T14:02:51;9.90;99.90
7331;DHT22;3706;49.198;7.064;2022-09-27T14:05:26;9.70;99.90
7331;DHT22;3706;49.198;7.064;2022-09-27T14:07:54;9.60;99.90
7331;DHT22;3706;49.198;7.064;2022-09-27T14:10:24;9.90;99.90
7331;DHT22;3706;49.198;7.064;2022-09-27T14:12:55;10.20;99.90
7331;DHT22;3706;49.198;7.064;2022-09-27T14:15:26;10.50;99.90
7331;DHT22;3706;49.198;7.064;2022-09-27T14:17:54;11.00;99.90
7331;DHT22;3706;49.198;7.064;2022-09-27T14:20:34;11.50;99.90
7331;DHT22;3706;49.198;7.064;2022-09-27T14:23:01;12.10;99.90
7331;DHT22;3706;49.198;7.064;2022-09-27T14:25:29;12.70;99.90
7331;DHT22;3706;49.198;7.064;2022-09-27T14:27:57;13.00;99.90
7331;DHT22;3706;49.198;7.064;2022-09-27T14:30:28;13.10;99.90
7331;DHT22;3706;49.198;7.064;2022-09-27T14:32:56;13.00;99.90
7331;DHT22;3706;49.198;7.064;2022-09-27T14:35:25;12.70;99.90
7331;DHT22;3706;49.198;7.064;2022-09-27T14:38:12;12.30;99.90
7331;DHT22;3706;49.198;7.064;2022-09-27T14:40:41;12.00;99.90
7331;DHT22;3706;49.198;7.064;2022-09-27T14:43:19;11.70;99.90
7331;DHT22;3706;49.198;7.064;2022-09-27T14:45:47;11.40;99.90
7331;DHT22;3706;49.198;7.064;2022-09-27T14:48:20;11.30;99.90
7331;DHT22;3706;49.198;7.064;2022-09-27T14:50:55;11.20;99.90
7331;DHT22;3706;49.198;7.064;2022-09-27T14:53:27;11.10;99.90
7331;DHT22;3706;49.198;7.064;2022-09-27T14:55:55;11.00;99.90
7331;DHT22;3706;49.198;7.064;2022-09-27T14:58:23;11.10;99.90
7331;DHT22;3706;49.198;7.064;2022-09-27T15:00:51;11.30;99.90
7331;DHT22;3706;49.198;7.064;2022-09-27T15:03:22;11.40;99.90
7331;DHT22;3706;49.198;7.064;2022-09-27T15:05:51;11.60;99.90
7331;DHT22;3706;49.198;7.064;2022-09-27T15:08:22;11.80;99.90
7331;DHT22;3706;49.198;7.064;2022-09-27T15:10:51;11.90;99.90
7331;DHT22;3706;49.198;7.064;2022-09-27T15:13:19;12.00;99.90
7331;DHT22;3706;49.198;7.064;2022-09-27T15:15:48;12.10;99.90
7331;DHT22;3706;49.198;7.064;2022-09-27T15:18:39;12.10;99.90
7331;DHT22;3706;49.198;7.064;2022-09-27T15:21:08;11.90;99.90
7331;DHT22;3706;49.198;7.064;2022-09-27T15:23:37;11.80;99.90
7331;DHT22;3706;49.198;7.064;2022-09-27T15:26:09;11.70;99.90
7331;DHT22;3706;49.198;7.064;2022-09-27T15:28:40;11.60;99.90
7331;DHT22;3706;49.198;7.064;2022-09-27T15:31:09;11.70;99.90
7331;DHT22;3706;49.198;7.064;2022-09-27T15:33:36;11.80;99.90
7331;DHT22;3706;49.198;7.064;2022-09-27T15:36:05;11.90;99.90
7331;DHT22;3706;49.198;7.064;2022-09-27T15:38:33;12.00;99.90
7331;DHT22;3706;49.198;7.064;2022-09-27T15:41:07;12.10;99.90
7331;DHT22;3706;49.198;7.064;2022-09-27T15:43:37;12.10;99.90
7331;DHT22;3706;49.198;7.064;2022-09-27T15:46:25;12.00;99.90
7331;DHT22;3706;49.198;7.064;2022-09-27T15:49:21;11.90;99.90
7331;DHT22;3706;49.198;7.064;2022-09-27T15:51:50;11.90;99.90
7331;DHT22;3706;49.198;7.064;2022-09-27T15:54:18;11.90;99.90
7331;DHT22;3706;49.198;7.064;2022-09-27T15:56:46;11.90;99.90
7331;DHT22;3706;49.198;7.064;2022-09-27T15:59:20;11.90;99.90
7331;DHT22;3706;49.198;7.064;2022-09-27T16:01:54;11.90;99.90
7331;DHT22;3706;49.198;7.064;2022-09-27T16:04:21;12.00;99.90
7331;DHT22;3706;49.198;7.064;2022-09-27T16:06:48;12.00;99.90
7331;DHT22;3706;49.198;7.064;2022-09-27T16:09:16;12.00;99.90
7331;DHT22;3706;49.198;7.064;2022-09-27T16:11:44;11.80;99.90
7331;DHT22;3706;49.198;7.064;2022-09-27T16:14:11;11.70;99.90
7331;DHT22;3706;49.198;7.064;2022-09-27T16:16:42;11.50;99.90
7331;DHT22;3706;49.198;7.064;2022-09-27T16:19:11;11.30;99.90
7331;DHT22;3706;49.198;7.064;2022-09-27T16:21:38;11.10;99.90
7331;DHT22;3706;49.198;7.064;2022-09-27T16:24:07;11.00;99.90
7331;DHT22;3706;49.198;7.064;2022-09-27T16:26:35;10.90;99.90
7331;DHT22;3706;49.198;7.064;2022-09-27T16:29:02;10.80;99.90
7331;DHT22;3706;49.198;7.064;2022-09-27T16:31:29;10.80;99.90
7331;DHT22;3706;49.198;7.064;2022-09-27T16:33:56;10.70;99.90
7331;DHT22;3706;49.198;7.064;2022-09-27T16:36:24;10.70;99.90
7331;DHT22;3706;49.198;7.064;2022-09-27T16:38:52;10.70;99.90
7331;DHT22;3706;49.198;7.064;2022-09-27T16:41:20;10.80;99.90
7331;DHT22;3706;49.198;7.064;2022-09-27T16:43:48;10.80;99.90
7331;DHT22;3706;49.198;7.064;2022-09-27T16:46:15;10.80;99.90
7331;DHT22;3706;49.198;7.064;2022-09-27T16:48:44;10.70;99.90
7331;DHT22;3706;49.198;7.064;2022-09-27T16:51:13;10.70;99.90